createdAt,value
2018-05-02T00:00:52.538Z,938.85
2018-05-02T00:01:52.681Z,938.90
2018-05-02T00:02:52.582Z,938.91
2018-05-02T00:03:52.612Z,938.90
2018-05-02T00:04:52.610Z,938.94
2018-05-02T00:05:52.617Z,938.93
2018-05-02T00:06:52.759Z,938.91
2018-05-02T00:07:52.646Z,938.93
2018-05-02T00:08:52.663Z,938.98
2018-05-02T00:09:52.677Z,938.96
2018-05-02T00:10:52.719Z,938.97
2018-05-02T00:11:52.838Z,938.97
2018-05-02T00:12:52.752Z,939.02
2018-05-02T00:13:52.775Z,938.97
2018-05-02T00:14:52.759Z,939.03
2018-05-02T00:15:52.799Z,939.06
2018-05-02T00:16:52.914Z,939.09
2018-05-02T00:17:52.802Z,939.09
2018-05-02T00:18:52.823Z,939.12
2018-05-02T00:19:52.832Z,939.14
2018-05-02T00:20:52.849Z,939.18
2018-05-02T00:21:52.997Z,939.17
2018-05-02T00:22:52.885Z,939.20
2018-05-02T00:23:52.902Z,939.20
2018-05-02T00:24:52.913Z,939.20
2018-05-02T00:25:52.939Z,939.22
2018-05-02T00:26:53.054Z,939.23
2018-05-02T00:27:52.969Z,939.24
2018-05-02T00:28:52.977Z,939.22
2018-05-02T00:29:53.040Z,939.26
2018-05-02T00:30:53.039Z,939.24
2018-05-02T00:31:53.150Z,939.24
2018-05-02T00:32:53.065Z,939.26
2018-05-02T00:33:53.059Z,939.28
2018-05-02T00:34:53.100Z,939.27
2018-05-02T00:35:53.088Z,939.27
2018-05-02T00:36:53.207Z,939.28
2018-05-02T00:37:53.119Z,939.24
2018-05-02T00:38:53.138Z,939.25
2018-05-02T00:39:53.163Z,939.22
2018-05-02T00:40:53.168Z,939.21
2018-05-02T00:41:53.313Z,939.13
2018-05-02T00:42:53.229Z,939.14
2018-05-02T00:43:53.228Z,939.17
2018-05-02T00:44:53.230Z,939.17
2018-05-02T00:45:53.255Z,939.20
2018-05-02T00:46:53.279Z,939.19
2018-05-02T00:47:53.413Z,939.17
2018-05-02T00:48:53.303Z,939.19
2018-05-02T00:49:53.309Z,939.21
2018-05-02T00:50:53.334Z,939.22
2018-05-02T00:51:53.378Z,939.19
2018-05-02T00:52:53.465Z,939.23
2018-05-02T00:53:53.381Z,939.19
2018-05-02T00:54:53.416Z,939.19
2018-05-02T00:55:53.406Z,939.16
2018-05-02T00:56:53.422Z,939.17
2018-05-02T00:57:53.552Z,939.18
2018-05-02T00:58:53.457Z,939.19
2018-05-02T00:59:53.481Z,939.20
2018-05-02T01:00:53.506Z,939.23
2018-05-02T01:01:53.507Z,939.26
2018-05-02T01:02:53.647Z,939.26
2018-05-02T01:03:53.535Z,939.29
2018-05-02T01:04:53.547Z,939.31
2018-05-02T01:05:53.593Z,939.33
2018-05-02T01:06:53.589Z,939.34
2018-05-02T01:07:53.709Z,939.33
2018-05-02T01:08:53.613Z,939.33
2018-05-02T01:09:53.630Z,939.35
2018-05-02T01:10:53.674Z,939.32
2018-05-02T01:11:53.689Z,939.32
2018-05-02T01:12:53.852Z,939.30
2018-05-02T01:13:53.699Z,939.29
2018-05-02T01:14:53.734Z,939.30
2018-05-02T01:15:53.755Z,939.30
2018-05-02T01:16:53.768Z,939.27
2018-05-02T01:17:53.934Z,939.26
2018-05-02T01:18:53.774Z,939.27
2018-05-02T01:19:53.785Z,939.26
2018-05-02T01:20:53.820Z,939.27
2018-05-02T01:21:53.838Z,939.25
2018-05-02T01:22:53.944Z,939.30
2018-05-02T01:23:53.847Z,939.31
2018-05-02T01:24:53.883Z,939.34
2018-05-02T01:25:53.911Z,939.33
2018-05-02T01:26:53.926Z,939.33
2018-05-02T01:27:54.060Z,939.29
2018-05-02T01:28:53.931Z,939.34
2018-05-02T01:29:53.977Z,939.33
2018-05-02T01:30:53.978Z,939.32
2018-05-02T01:31:53.977Z,939.30
2018-05-02T01:32:54.125Z,939.32
2018-05-02T01:33:54.034Z,939.31
2018-05-02T01:34:54.048Z,939.34
2018-05-02T01:35:54.043Z,939.37
2018-05-02T01:36:54.082Z,939.38
2018-05-02T01:37:54.176Z,939.41
2018-05-02T01:38:54.090Z,939.41
2018-05-02T01:39:54.110Z,939.40
2018-05-02T01:40:54.121Z,939.39
2018-05-02T01:41:54.135Z,939.39
2018-05-02T01:42:54.248Z,939.39
2018-05-02T01:43:54.191Z,939.38
2018-05-02T01:44:54.206Z,939.39
2018-05-02T01:45:54.198Z,939.36
2018-05-02T01:46:54.211Z,939.36
2018-05-02T01:47:54.230Z,939.39
2018-05-02T01:48:54.371Z,939.38
2018-05-02T01:49:54.288Z,939.36
2018-05-02T01:50:54.271Z,939.35
2018-05-02T01:51:54.314Z,939.39
2018-05-02T01:52:54.308Z,939.35
2018-05-02T01:53:54.445Z,939.38
2018-05-02T01:54:54.348Z,939.37
2018-05-02T01:55:54.380Z,939.35
2018-05-02T01:56:54.398Z,939.32
2018-05-02T01:57:54.384Z,939.34
2018-05-02T01:58:54.546Z,939.29
2018-05-02T01:59:54.420Z,939.27
2018-05-02T02:00:54.427Z,939.30
2018-05-02T02:01:54.446Z,939.28
2018-05-02T02:02:54.458Z,939.28
2018-05-02T02:03:54.600Z,939.31
2018-05-02T02:04:54.489Z,939.33
2018-05-02T02:05:54.532Z,939.33
2018-05-02T02:06:54.521Z,939.30
2018-05-02T02:07:54.539Z,939.27
2018-05-02T02:08:54.702Z,939.27
2018-05-02T02:09:54.569Z,939.28
2018-05-02T02:10:54.580Z,939.32
2018-05-02T02:11:54.607Z,939.29
2018-05-02T02:12:54.615Z,939.29
2018-05-02T02:13:54.730Z,939.29
2018-05-02T02:14:54.650Z,939.30
2018-05-02T02:15:54.663Z,939.33
2018-05-02T02:16:54.674Z,939.31
2018-05-02T02:17:54.698Z,939.30
2018-05-02T02:18:54.816Z,939.31
2018-05-02T02:19:54.724Z,939.31
2018-05-02T02:20:54.741Z,939.32
2018-05-02T02:21:54.780Z,939.29
2018-05-02T02:22:54.797Z,939.27
2018-05-02T02:23:54.912Z,939.27
2018-05-02T02:24:54.823Z,939.28
2018-05-02T02:25:54.841Z,939.27
2018-05-02T02:26:54.864Z,939.29
2018-05-02T02:27:54.847Z,939.28
2018-05-02T02:28:54.961Z,939.24
2018-05-02T02:29:54.878Z,939.23
2018-05-02T02:30:54.919Z,939.23
2018-05-02T02:31:54.925Z,939.20
2018-05-02T02:32:54.924Z,939.20
2018-05-02T02:33:55.062Z,939.18
2018-05-02T02:34:54.979Z,939.18
2018-05-02T02:35:54.992Z,939.21
2018-05-02T02:36:54.988Z,939.20
2018-05-02T02:37:55.023Z,939.22
2018-05-02T02:38:55.111Z,939.21
2018-05-02T02:39:55.031Z,939.20
2018-05-02T02:40:55.046Z,939.23
2018-05-02T02:41:55.083Z,939.20
2018-05-02T02:42:55.077Z,939.26
2018-05-02T02:43:55.218Z,939.21
2018-05-02T02:44:55.104Z,939.25
2018-05-02T02:45:55.149Z,939.25
2018-05-02T02:46:55.137Z,939.16
2018-05-02T02:47:55.175Z,939.19
2018-05-02T02:48:55.339Z,939.22
2018-05-02T02:49:55.179Z,939.23
2018-05-02T02:50:55.205Z,939.23
2018-05-02T02:51:55.244Z,939.25
2018-05-02T02:52:55.258Z,939.23
2018-05-02T02:53:55.272Z,939.21
2018-05-02T02:54:55.356Z,939.17
2018-05-02T02:55:55.296Z,939.22
2018-05-02T02:56:55.294Z,939.17
2018-05-02T02:57:55.300Z,939.17
2018-05-02T02:58:55.319Z,939.21
2018-05-02T02:59:55.448Z,939.17
2018-05-02T03:00:55.371Z,939.17
2018-05-02T03:01:55.365Z,939.17
2018-05-02T03:02:55.377Z,939.18
2018-05-02T03:03:55.398Z,939.15
2018-05-02T03:04:55.515Z,939.18
2018-05-02T03:05:55.439Z,939.17
2018-05-02T03:06:55.450Z,939.19
2018-05-02T03:07:55.481Z,939.22
2018-05-02T03:08:55.489Z,939.22
2018-05-02T03:09:55.614Z,939.23
2018-05-02T03:10:55.503Z,939.21
2018-05-02T03:11:55.516Z,939.16
2018-05-02T03:12:55.557Z,939.18
2018-05-02T03:13:55.558Z,939.20
2018-05-02T03:14:55.694Z,939.20
2018-05-02T03:15:55.606Z,939.23
2018-05-02T03:16:55.588Z,939.23
2018-05-02T03:17:55.608Z,939.21
2018-05-02T03:18:55.635Z,939.24
2018-05-02T03:19:55.749Z,939.21
2018-05-02T03:20:55.676Z,939.21
2018-05-02T03:21:55.690Z,939.18
2018-05-02T03:22:55.711Z,939.16
2018-05-02T03:23:55.724Z,939.18
2018-05-02T03:24:55.824Z,939.19
2018-05-02T03:25:55.723Z,939.20
2018-05-02T03:26:55.771Z,939.16
2018-05-02T03:27:55.759Z,939.18
2018-05-02T03:28:55.797Z,939.17
2018-05-02T03:29:55.898Z,939.20
2018-05-02T03:30:55.816Z,939.18
2018-05-02T03:31:55.843Z,939.13
2018-05-02T03:32:55.836Z,939.17
2018-05-02T03:33:55.872Z,939.17
2018-05-02T03:34:55.987Z,939.14
2018-05-02T03:35:55.878Z,939.11
2018-05-02T03:36:55.896Z,939.08
2018-05-02T03:37:55.907Z,939.12
2018-05-02T03:38:55.941Z,939.10
2018-05-02T03:39:56.050Z,939.12
2018-05-02T03:40:55.951Z,939.11
2018-05-02T03:41:55.963Z,939.14
2018-05-02T03:42:55.994Z,939.11
2018-05-02T03:43:56.036Z,939.14
2018-05-02T03:44:56.114Z,939.14
2018-05-02T03:45:56.027Z,939.12
2018-05-02T03:46:56.046Z,939.13
2018-05-02T03:47:56.071Z,939.15
2018-05-02T03:48:56.079Z,939.12
2018-05-02T03:49:56.192Z,939.16
2018-05-02T03:50:56.106Z,939.16
2018-05-02T03:51:56.116Z,939.16
2018-05-02T03:52:56.214Z,939.14
2018-05-02T03:53:56.179Z,939.11
2018-05-02T03:54:56.294Z,939.15
2018-05-02T03:55:56.208Z,939.12
2018-05-02T03:56:56.209Z,939.14
2018-05-02T03:57:56.212Z,939.13
2018-05-02T03:58:56.227Z,939.15
2018-05-02T03:59:56.373Z,939.11
2018-05-02T04:00:56.284Z,939.08
2018-05-02T04:01:56.273Z,939.07
2018-05-02T04:02:56.292Z,939.06
2018-05-02T04:03:56.303Z,939.08
2018-05-02T04:04:56.423Z,939.06
2018-05-02T04:05:56.332Z,939.05
2018-05-02T04:06:56.374Z,939.03
2018-05-02T04:07:56.370Z,939.02
2018-05-02T04:08:56.411Z,939.01
2018-05-02T04:09:56.525Z,938.99
2018-05-02T04:10:56.434Z,939.01
2018-05-02T04:11:56.459Z,939.00
2018-05-02T04:12:56.465Z,938.99
2018-05-02T04:13:56.480Z,938.94
2018-05-02T04:14:56.597Z,938.90
2018-05-02T04:15:56.502Z,938.91
2018-05-02T04:16:56.530Z,938.86
2018-05-02T04:17:56.528Z,938.87
2018-05-02T04:18:56.558Z,938.84
2018-05-02T04:19:56.679Z,938.86
2018-05-02T04:20:56.599Z,938.87
2018-05-02T04:21:56.599Z,938.88
2018-05-02T04:22:56.616Z,938.90
2018-05-02T04:23:56.613Z,938.88
2018-05-02T04:24:56.822Z,938.91
2018-05-02T04:25:56.638Z,938.87
2018-05-02T04:26:56.663Z,938.86
2018-05-02T04:27:56.690Z,938.86
2018-05-02T04:28:56.679Z,938.87
2018-05-02T04:29:56.809Z,938.85
2018-05-02T04:30:56.724Z,938.83
2018-05-02T04:31:56.737Z,938.85
2018-05-02T04:32:56.773Z,938.83
2018-05-02T04:33:56.757Z,938.81
2018-05-02T04:34:56.905Z,938.83
2018-05-02T04:35:56.786Z,938.83
2018-05-02T04:36:56.812Z,938.82
2018-05-02T04:37:56.827Z,938.78
2018-05-02T04:38:56.830Z,938.78
2018-05-02T04:39:56.946Z,938.72
2018-05-02T04:40:56.917Z,938.77
2018-05-02T04:41:56.894Z,938.75
2018-05-02T04:42:56.931Z,938.79
2018-05-02T04:43:56.971Z,938.81
2018-05-02T04:44:57.077Z,938.81
2018-05-02T04:45:56.964Z,938.87
2018-05-02T04:46:56.952Z,938.83
2018-05-02T04:47:57.006Z,938.82
2018-05-02T04:48:57.009Z,938.83
2018-05-02T04:49:57.120Z,938.83
2018-05-02T04:50:57.014Z,938.84
2018-05-02T04:51:57.042Z,938.87
2018-05-02T04:52:57.054Z,938.86
2018-05-02T04:53:57.061Z,938.88
2018-05-02T04:54:57.230Z,938.84
2018-05-02T04:55:57.096Z,938.83
2018-05-02T04:56:57.103Z,938.81
2018-05-02T04:57:57.132Z,938.83
2018-05-02T04:58:57.154Z,938.79
2018-05-02T04:59:57.160Z,938.82
2018-05-02T05:00:57.290Z,938.83
2018-05-02T05:01:57.177Z,938.85
2018-05-02T05:02:57.195Z,938.88
2018-05-02T05:03:57.224Z,938.85
2018-05-02T05:04:57.276Z,938.83
2018-05-02T05:05:57.341Z,938.83
2018-05-02T05:06:57.254Z,938.79
2018-05-02T05:07:57.354Z,938.78
2018-05-02T05:08:57.281Z,938.81
2018-05-02T05:09:57.319Z,938.79
2018-05-02T05:10:57.458Z,938.82
2018-05-02T05:11:57.359Z,938.82
2018-05-02T05:12:57.408Z,938.80
2018-05-02T05:13:57.359Z,938.79
2018-05-02T05:14:57.370Z,938.80
2018-05-02T05:15:57.512Z,938.77
2018-05-02T05:16:57.450Z,938.79
2018-05-02T05:17:57.421Z,938.75
2018-05-02T05:18:57.437Z,938.77
2018-05-02T05:19:57.473Z,938.74
2018-05-02T05:20:57.567Z,938.73
2018-05-02T05:21:57.545Z,938.74
2018-05-02T05:22:57.519Z,938.70
2018-05-02T05:23:57.512Z,938.69
2018-05-02T05:24:57.542Z,938.65
2018-05-02T05:25:57.711Z,938.65
2018-05-02T05:26:57.565Z,938.63
2018-05-02T05:27:57.589Z,938.65
2018-05-02T05:28:57.602Z,938.61
2018-05-02T05:29:57.657Z,938.61
2018-05-02T05:30:57.749Z,938.61
2018-05-02T05:31:57.682Z,938.61
2018-05-02T05:32:57.663Z,938.64
2018-05-02T05:33:57.703Z,938.59
2018-05-02T05:34:57.718Z,938.60
2018-05-02T05:35:57.796Z,938.56
2018-05-02T05:36:57.691Z,938.60
2018-05-02T05:37:57.744Z,938.58
2018-05-02T05:38:57.737Z,938.54
2018-05-02T05:39:57.830Z,938.53
2018-05-02T05:40:57.884Z,938.52
2018-05-02T05:41:57.838Z,938.51
2018-05-02T05:42:57.794Z,938.48
2018-05-02T05:43:57.884Z,938.47
2018-05-02T05:44:57.873Z,938.49
2018-05-02T05:45:58.035Z,938.45
2018-05-02T05:46:57.848Z,938.44
2018-05-02T05:47:57.892Z,938.43
2018-05-02T05:48:57.882Z,938.46
2018-05-02T05:49:57.905Z,938.42
2018-05-02T05:50:58.072Z,938.44
2018-05-02T05:51:57.935Z,938.45
2018-05-02T05:52:57.936Z,938.42
2018-05-02T05:53:58.015Z,938.39
2018-05-02T05:54:58.020Z,938.36
2018-05-02T05:55:58.140Z,938.32
2018-05-02T05:56:58.027Z,938.32
2018-05-02T05:57:58.009Z,938.29
2018-05-02T05:58:58.019Z,938.30
2018-05-02T05:59:58.058Z,938.31
2018-05-02T06:00:58.161Z,938.29
2018-05-02T06:01:58.091Z,938.27
2018-05-02T06:02:58.085Z,938.25
2018-05-02T06:03:58.118Z,938.22
2018-05-02T06:04:58.162Z,938.23
2018-05-02T06:05:58.136Z,938.20
2018-05-02T06:06:58.242Z,938.20
2018-05-02T06:07:58.238Z,938.21
2018-05-02T06:08:58.197Z,938.15
2018-05-02T06:09:58.210Z,938.19
2018-05-02T06:10:58.226Z,938.14
2018-05-02T06:11:58.359Z,938.09
2018-05-02T06:12:58.290Z,938.16
2018-05-02T06:13:58.261Z,938.14
2018-05-02T06:14:58.301Z,938.11
2018-05-02T06:15:58.307Z,938.11
2018-05-02T06:16:58.418Z,938.13
2018-05-02T06:17:58.371Z,938.11
2018-05-02T06:18:58.322Z,938.11
2018-05-02T06:19:58.404Z,938.09
2018-05-02T06:20:58.367Z,938.10
2018-05-02T06:21:58.496Z,938.10
2018-05-02T06:22:58.408Z,938.11
2018-05-02T06:23:58.401Z,938.13
2018-05-02T06:24:58.476Z,938.11
2018-05-02T06:25:58.452Z,938.12
2018-05-02T06:26:58.543Z,938.09
2018-05-02T06:27:58.554Z,938.05
2018-05-02T06:28:58.486Z,938.05
2018-05-02T06:29:58.551Z,938.03
2018-05-02T06:30:58.508Z,938.06
2018-05-02T06:31:58.743Z,938.02
2018-05-02T06:32:58.566Z,938.04
2018-05-02T06:33:58.548Z,938.03
2018-05-02T06:34:58.576Z,938.08
2018-05-02T06:35:58.599Z,938.06
2018-05-02T06:36:58.693Z,938.08
2018-05-02T06:37:58.801Z,938.10
2018-05-02T06:38:58.656Z,938.09
2018-05-02T06:39:58.698Z,938.09
2018-05-02T06:40:58.706Z,938.09
2018-05-02T06:41:58.775Z,938.10
2018-05-02T06:42:58.730Z,938.10
2018-05-02T06:43:58.722Z,938.08
2018-05-02T06:44:58.781Z,938.09
2018-05-02T06:45:58.767Z,938.11
2018-05-02T06:46:58.876Z,938.12
2018-05-02T06:47:58.893Z,938.07
2018-05-02T06:48:58.767Z,938.05
2018-05-02T06:49:58.812Z,938.07
2018-05-02T06:50:58.798Z,938.05
2018-05-02T06:51:58.939Z,938.03
2018-05-02T06:52:58.838Z,938.03
2018-05-02T06:53:58.868Z,937.98
2018-05-02T06:54:58.911Z,937.99
2018-05-02T06:55:58.952Z,937.98
2018-05-02T06:56:58.983Z,937.96
2018-05-02T06:57:58.943Z,937.99
2018-05-02T06:58:58.923Z,937.93
2018-05-02T06:59:59.147Z,937.97
2018-05-02T07:00:58.967Z,937.95
2018-05-02T07:01:59.054Z,937.92
2018-05-02T07:02:58.972Z,937.94
2018-05-02T07:03:58.987Z,937.87
2018-05-02T07:04:59.072Z,937.95
2018-05-02T07:05:59.042Z,937.90
2018-05-02T07:06:59.145Z,937.89
2018-05-02T07:07:59.047Z,937.87
2018-05-02T07:08:59.085Z,937.85
2018-05-02T07:09:59.069Z,937.87
2018-05-02T07:10:59.084Z,937.85
2018-05-02T07:11:59.219Z,937.88
2018-05-02T07:12:59.128Z,937.91
2018-05-02T07:13:59.156Z,937.92
2018-05-02T07:14:59.172Z,937.89
2018-05-02T07:15:59.159Z,937.93
2018-05-02T07:16:59.327Z,937.95
2018-05-02T07:17:59.224Z,937.88
2018-05-02T07:18:59.304Z,937.91
2018-05-02T07:19:59.243Z,937.90
2018-05-02T07:20:59.230Z,937.90
2018-05-02T07:21:59.366Z,937.88
2018-05-02T07:22:59.259Z,937.90
2018-05-02T07:23:59.349Z,937.89
2018-05-02T07:24:59.366Z,937.88
2018-05-02T07:25:59.305Z,937.88
2018-05-02T07:26:59.417Z,937.84
2018-05-02T07:27:59.327Z,937.88
2018-05-02T07:28:59.395Z,937.84
2018-05-02T07:29:59.390Z,937.85
2018-05-02T07:30:59.396Z,937.84
2018-05-02T07:31:59.514Z,937.87
2018-05-02T07:32:59.466Z,937.86
2018-05-02T07:33:59.497Z,937.88
2018-05-02T07:34:59.495Z,937.88
2018-05-02T07:35:59.442Z,937.86
2018-05-02T07:36:59.560Z,937.87
2018-05-02T07:37:59.484Z,937.85
2018-05-02T07:38:59.517Z,937.87
2018-05-02T07:39:59.522Z,937.86
2018-05-02T07:40:59.553Z,937.84
2018-05-02T07:41:59.660Z,937.85
2018-05-02T07:42:59.546Z,937.85
2018-05-02T07:43:59.554Z,937.84
2018-05-02T07:44:59.687Z,937.87
2018-05-02T07:45:59.614Z,937.84
2018-05-02T07:46:59.734Z,937.84
2018-05-02T07:47:59.631Z,937.83
2018-05-02T07:48:59.687Z,937.88
2018-05-02T07:49:59.722Z,937.86
2018-05-02T07:50:59.658Z,937.88
2018-05-02T07:51:59.796Z,937.88
2018-05-02T07:52:59.716Z,937.91
2018-05-02T07:53:59.728Z,937.91
2018-05-02T07:54:59.751Z,937.92
2018-05-02T07:55:59.732Z,937.92
2018-05-02T07:56:59.853Z,937.92
2018-05-02T07:57:59.802Z,937.94
2018-05-02T07:58:59.766Z,937.95
2018-05-02T07:59:59.827Z,937.94
2018-05-02T08:00:59.798Z,937.95
2018-05-02T08:01:59.943Z,937.96
2018-05-02T08:02:59.835Z,937.92
2018-05-02T08:03:59.857Z,937.95
2018-05-02T08:04:59.893Z,937.96
2018-05-02T08:05:59.884Z,937.94
2018-05-02T08:07:00.041Z,937.95
2018-05-02T08:07:59.898Z,937.98
2018-05-02T08:08:59.949Z,937.98
2018-05-02T08:09:59.967Z,938.00
2018-05-02T08:11:00.020Z,938.03
2018-05-02T08:12:00.060Z,938.05
2018-05-02T08:12:59.997Z,938.06
2018-05-02T08:13:59.987Z,938.07
2018-05-02T08:15:00.036Z,938.08
2018-05-02T08:16:00.040Z,938.09
2018-05-02T08:17:00.144Z,938.09
2018-05-02T08:18:00.069Z,938.08
2018-05-02T08:19:00.062Z,938.07
2018-05-02T08:20:00.137Z,938.11
2018-05-02T08:21:00.079Z,938.07
2018-05-02T08:22:00.273Z,938.10
2018-05-02T08:23:00.121Z,938.12
2018-05-02T08:24:00.127Z,938.19
2018-05-02T08:25:00.172Z,938.17
2018-05-02T08:26:00.175Z,938.19
2018-05-02T08:27:00.271Z,938.19
2018-05-02T08:28:00.209Z,938.20
2018-05-02T08:29:00.231Z,938.20
2018-05-02T08:30:00.249Z,938.19
2018-05-02T08:31:00.257Z,938.20
2018-05-02T08:32:00.366Z,938.21
2018-05-02T08:33:00.317Z,938.20
2018-05-02T08:34:00.272Z,938.21
2018-05-02T08:35:00.495Z,938.19
2018-05-02T08:36:00.299Z,938.21
2018-05-02T08:37:00.427Z,938.25
2018-05-02T08:38:00.339Z,938.25
2018-05-02T08:39:00.356Z,938.24
2018-05-02T08:40:00.440Z,938.25
2018-05-02T08:41:00.372Z,938.31
2018-05-02T08:42:00.496Z,938.27
2018-05-02T08:43:00.398Z,938.35
2018-05-02T08:44:00.412Z,938.33
2018-05-02T08:45:00.486Z,938.34
2018-05-02T08:46:00.473Z,938.31
2018-05-02T08:47:00.557Z,938.34
2018-05-02T08:48:00.468Z,938.36
2018-05-02T08:49:00.488Z,938.39
2018-05-02T08:50:00.575Z,938.39
2018-05-02T08:51:00.515Z,938.41
2018-05-02T08:52:00.689Z,938.47
2018-05-02T08:53:00.596Z,938.48
2018-05-02T08:54:00.639Z,938.46
2018-05-02T08:55:00.625Z,938.49
2018-05-02T08:56:00.677Z,938.54
2018-05-02T08:57:00.783Z,938.51
2018-05-02T08:58:00.666Z,938.52
2018-05-02T08:59:00.680Z,938.49
2018-05-02T09:00:00.749Z,938.50
2018-05-02T09:01:00.758Z,938.53
2018-05-02T09:02:00.764Z,938.51
2018-05-02T09:03:00.701Z,938.53
2018-05-02T09:04:00.721Z,938.53
2018-05-02T09:05:00.736Z,938.55
2018-05-02T09:06:00.727Z,938.55
2018-05-02T09:07:00.841Z,938.55
2018-05-02T09:08:00.755Z,938.58
2018-05-02T09:09:00.849Z,938.60
2018-05-02T09:10:00.780Z,938.60
2018-05-02T09:11:00.807Z,938.64
2018-05-02T09:12:00.937Z,938.64
2018-05-02T09:13:00.816Z,938.66
2018-05-02T09:14:00.869Z,938.69
2018-05-02T09:15:00.863Z,938.72
2018-05-02T09:16:00.868Z,938.71
2018-05-02T09:17:00.982Z,938.75
2018-05-02T09:18:00.895Z,938.76
2018-05-02T09:19:00.908Z,938.73
2018-05-02T09:20:01.006Z,938.73
2018-05-02T09:21:00.969Z,938.79
2018-05-02T09:22:01.050Z,938.76
2018-05-02T09:23:00.977Z,938.76
2018-05-02T09:24:01.009Z,938.73
2018-05-02T09:25:00.999Z,938.70
2018-05-02T09:26:01.019Z,938.70
2018-05-02T09:27:01.136Z,938.67
2018-05-02T09:28:01.043Z,938.73
2018-05-02T09:29:01.049Z,938.72
2018-05-02T09:30:01.095Z,938.68
2018-05-02T09:31:01.079Z,938.73
2018-05-02T09:32:01.094Z,938.72
2018-05-02T09:33:01.221Z,938.73
2018-05-02T09:34:01.116Z,938.77
2018-05-02T09:35:01.135Z,938.72
2018-05-02T09:36:01.149Z,938.75
2018-05-02T09:37:01.172Z,938.77
2018-05-02T09:38:01.273Z,938.81
2018-05-02T09:39:01.191Z,938.79
2018-05-02T09:40:01.236Z,938.84
2018-05-02T09:41:01.247Z,938.88
2018-05-02T09:42:01.267Z,938.86
2018-05-02T09:43:01.350Z,938.88
2018-05-02T09:44:01.265Z,938.86
2018-05-02T09:45:01.303Z,938.89
2018-05-02T09:46:01.305Z,938.89
2018-05-02T09:47:01.308Z,938.94
2018-05-02T09:48:01.472Z,938.90
2018-05-02T09:49:01.339Z,938.96
2018-05-02T09:50:01.375Z,938.93
2018-05-02T09:51:01.365Z,938.99
2018-05-02T09:52:01.507Z,939.01
2018-05-02T09:53:01.492Z,939.00
2018-05-02T09:54:01.432Z,938.99
2018-05-02T09:55:01.422Z,938.99
2018-05-02T09:56:01.436Z,939.04
2018-05-02T09:57:01.475Z,939.01
2018-05-02T09:58:01.591Z,939.03
2018-05-02T09:59:01.509Z,939.05
2018-05-02T10:00:01.539Z,939.08
2018-05-02T10:01:01.536Z,939.09
2018-05-02T10:02:01.548Z,939.10
2018-05-02T10:03:01.685Z,939.14
2018-05-02T10:04:01.567Z,939.13
2018-05-02T10:05:01.581Z,939.15
2018-05-02T10:06:01.588Z,939.16
2018-05-02T10:07:01.594Z,939.18
2018-05-02T10:08:01.732Z,939.17
2018-05-02T10:09:01.619Z,939.19
2018-05-02T10:10:01.671Z,939.21
2018-05-02T10:11:01.650Z,939.26
2018-05-02T10:12:01.667Z,939.27
2018-05-02T10:13:01.780Z,939.35
2018-05-02T10:14:01.699Z,939.32
2018-05-02T10:15:01.755Z,939.38
2018-05-02T10:16:01.747Z,939.37
2018-05-02T10:17:01.763Z,939.42
2018-05-02T10:18:01.904Z,939.46
2018-05-02T10:19:01.795Z,939.46
2018-05-02T10:20:01.780Z,939.50
2018-05-02T10:21:01.828Z,939.53
2018-05-02T10:22:01.809Z,939.57
2018-05-02T10:23:01.925Z,939.58
2018-05-02T10:24:01.869Z,939.63
2018-05-02T10:25:01.867Z,939.67
2018-05-02T10:26:01.870Z,939.63
2018-05-02T10:27:01.899Z,939.66
2018-05-02T10:28:02.025Z,939.68
2018-05-02T10:29:01.925Z,939.72
2018-05-02T10:30:01.929Z,939.79
2018-05-02T10:31:01.942Z,939.76
2018-05-02T10:32:01.967Z,939.76
2018-05-02T10:33:02.079Z,939.81
2018-05-02T10:34:02.005Z,939.80
2018-05-02T10:35:02.007Z,939.82
2018-05-02T10:36:02.047Z,939.85
2018-05-02T10:37:02.092Z,939.79
2018-05-02T10:38:02.080Z,939.84
2018-05-02T10:39:02.165Z,939.83
2018-05-02T10:40:02.099Z,939.87
2018-05-02T10:41:02.120Z,939.89
2018-05-02T10:42:02.122Z,939.91
2018-05-02T10:43:02.178Z,939.95
2018-05-02T10:44:02.242Z,939.93
2018-05-02T10:45:02.224Z,939.87
2018-05-02T10:46:02.181Z,939.90
2018-05-02T10:47:02.199Z,939.95
2018-05-02T10:48:02.214Z,939.94
2018-05-02T10:49:02.321Z,939.95
2018-05-02T10:50:02.245Z,939.96
2018-05-02T10:51:02.257Z,939.95
2018-05-02T10:52:02.270Z,939.98
2018-05-02T10:53:02.288Z,939.99
2018-05-02T10:54:02.428Z,939.97
2018-05-02T10:55:02.337Z,939.93
2018-05-02T10:56:02.448Z,939.95
2018-05-02T10:57:02.376Z,939.97
2018-05-02T10:58:02.395Z,939.97
2018-05-02T10:59:02.500Z,939.96
2018-05-02T11:00:02.398Z,939.96
2018-05-02T11:01:02.440Z,939.98
2018-05-02T11:02:02.429Z,939.98
2018-05-02T11:03:02.452Z,939.97
2018-05-02T11:04:02.565Z,939.95
2018-05-02T11:05:02.523Z,940.03
2018-05-02T11:06:02.507Z,940.04
2018-05-02T11:07:02.547Z,940.08
2018-05-02T11:08:02.558Z,940.03
2018-05-02T11:09:02.678Z,940.08
2018-05-02T11:10:02.635Z,940.07
2018-05-02T11:11:02.597Z,940.05
2018-05-02T11:12:02.600Z,940.07
2018-05-02T11:13:02.618Z,940.10
2018-05-02T11:14:02.787Z,940.09
2018-05-02T11:15:02.709Z,940.09
2018-05-02T11:16:02.701Z,940.12
2018-05-02T11:17:02.689Z,940.13
2018-05-02T11:18:02.715Z,940.18
2018-05-02T11:19:02.826Z,940.13
2018-05-02T11:20:02.744Z,940.18
2018-05-02T11:21:02.765Z,940.18
2018-05-02T11:22:02.835Z,940.10
2018-05-02T11:23:02.799Z,940.13
2018-05-02T11:24:02.939Z,940.14
2018-05-02T11:25:02.825Z,940.17
2018-05-02T11:26:02.839Z,940.18
2018-05-02T11:27:02.871Z,940.16
2018-05-02T11:28:02.874Z,940.15
2018-05-02T11:29:02.988Z,940.18
2018-05-02T11:30:02.980Z,940.23
2018-05-02T11:31:02.929Z,940.22
2018-05-02T11:32:02.942Z,940.22
2018-05-02T11:33:02.985Z,940.22
2018-05-02T11:34:03.155Z,940.26
2018-05-02T11:35:03.039Z,940.25
2018-05-02T11:36:03.010Z,940.25
2018-05-02T11:37:03.059Z,940.25
2018-05-02T11:38:03.072Z,940.25
2018-05-02T11:39:03.065Z,940.26
2018-05-02T11:40:03.225Z,940.28
2018-05-02T11:41:03.128Z,940.27
2018-05-02T11:42:03.119Z,940.30
2018-05-02T11:43:03.161Z,940.32
2018-05-02T11:44:03.160Z,940.33
2018-05-02T11:45:03.284Z,940.34
2018-05-02T11:46:03.218Z,940.37
2018-05-02T11:47:03.212Z,940.40
2018-05-02T11:48:03.229Z,940.39
2018-05-02T11:49:03.243Z,940.37
2018-05-02T11:50:03.429Z,940.41
2018-05-02T11:51:03.288Z,940.41
2018-05-02T11:52:03.331Z,940.38
2018-05-02T11:53:03.325Z,940.43
2018-05-02T11:54:03.399Z,940.37
2018-05-02T11:55:03.464Z,940.37
2018-05-02T11:56:03.400Z,940.37
2018-05-02T11:57:03.394Z,940.36
2018-05-02T11:58:03.407Z,940.39
2018-05-02T11:59:03.438Z,940.35
2018-05-02T12:00:03.551Z,940.36
2018-05-02T12:01:03.473Z,940.35
2018-05-02T12:02:03.485Z,940.42
2018-05-02T12:03:03.502Z,940.42
2018-05-02T12:04:03.525Z,940.39
2018-05-02T12:05:03.682Z,940.42
2018-05-02T12:06:03.559Z,940.45
2018-05-02T12:07:03.577Z,940.45
2018-05-02T12:08:03.601Z,940.50
2018-05-02T12:09:03.632Z,940.52
2018-05-02T12:10:03.755Z,940.56
2018-05-02T12:11:03.680Z,940.60
2018-05-02T12:12:03.690Z,940.62
2018-05-02T12:13:03.693Z,940.65
2018-05-02T12:14:03.729Z,940.61
2018-05-02T12:15:03.891Z,940.63
2018-05-02T12:16:03.790Z,940.61
2018-05-02T12:17:03.790Z,940.61
2018-05-02T12:18:03.790Z,940.61
2018-05-02T12:19:03.824Z,940.56
2018-05-02T12:20:03.979Z,940.57
2018-05-02T12:21:03.851Z,940.56
2018-05-02T12:22:03.899Z,940.54
2018-05-02T12:23:03.894Z,940.49
2018-05-02T12:24:03.914Z,940.52
2018-05-02T12:25:04.040Z,940.50
2018-05-02T12:26:03.979Z,940.53
2018-05-02T12:27:03.971Z,940.49
2018-05-02T12:28:03.991Z,940.52
2018-05-02T12:29:04.012Z,940.53